Time;durP1;ratioP1;P1;durP2;ratioP2;P2;SDS_P1;SDS_P2;PMS_P1;PMS_P2;Temp;Humidity;BMP_temperature;BMP_pressure;BME280_temperature;BME280_humidity;BME280_pressure;Samples;Min_cycle;Max_cycle;Signal;HPM_P1;HPM_P2
2023/02/06 00:00:03;;;;;;;10.23;6.38;;;-1.90;94.00;;;;;;5051858;28;20459;-78
2023/02/06 00:02:29;;;;;;;;;;;-2.00;93.90;;;;;;5053954;28;20028;-78
2023/02/06 00:04:55;;;;;;;10.00;7.20;;;-2.10;93.70;;;;;;5042311;28;19905;-77
2023/02/06 00:07:20;;;;;;;8.75;6.72;;;-2.20;93.60;;;;;;5037644;28;20041;-79
2023/02/06 00:09:46;;;;;;;13.13;7.28;;;-2.20;93.80;;;;;;5047643;28;20091;-79
2023/02/06 00:12:12;;;;;;;12.82;7.63;;;-2.30;93.80;;;;;;5050070;28;20043;-79
2023/02/06 00:14:38;;;;;;;13.65;8.90;;;-2.40;93.90;;;;;;5049172;28;20017;-78
2023/02/06 00:17:04;;;;;;;11.18;7.13;;;-2.30;94.20;;;;;;5049519;28;20116;-78
2023/02/06 00:19:31;;;;;;;11.95;7.15;;;-2.30;94.30;;;;;;5053442;28;20036;-79
2023/02/06 00:21:57;;;;;;;15.93;7.65;;;-2.30;94.20;;;;;;5053098;28;20025;-80
2023/02/06 00:24:22;;;;;;;14.48;7.88;;;-2.30;94.20;;;;;;5053513;28;20538;-80
2023/02/06 00:26:48;;;;;;;8.40;5.65;;;-2.20;94.30;;;;;;5053179;28;20029;-80
2023/02/06 00:29:14;;;;;;;11.10;6.97;;;-2.20;94.00;;;;;;5053463;28;20025;-81
2023/02/06 00:31:40;;;;;;;11.20;7.65;;;-2.30;93.50;;;;;;5028320;28;20086;-78
2023/02/06 00:34:06;;;;;;;11.70;7.20;;;-2.40;93.50;;;;;;5051759;28;20032;-77
2023/02/06 00:36:32;;;;;;;12.65;7.55;;;-2.30;93.70;;;;;;5045402;28;20040;-80
2023/02/06 00:38:58;;;;;;;11.40;6.55;;;-2.30;93.80;;;;;;5037964;28;20025;-78
2023/02/06 00:41:24;;;;;;;11.52;7.78;;;-2.30;94.00;;;;;;5042684;28;20050;-78
2023/02/06 00:43:50;;;;;;;10.82;7.07;;;-2.30;93.80;;;;;;5053256;28;20025;-78
2023/02/06 00:46:16;;;;;;;13.98;7.45;;;-2.20;93.80;;;;;;5052771;28;20028;-77
2023/02/06 00:48:41;;;;;;;15.73;8.82;;;-2.30;93.70;;;;;;5034991;28;20017;-77
2023/02/06 00:51:07;;;;;;;10.80;7.90;;;-2.40;93.90;;;;;;5052619;28;20040;-77
2023/02/06 00:53:33;;;;;;;14.32;8.15;;;-2.30;94.10;;;;;;5047782;28;20024;-77
2023/02/06 00:55:59;;;;;;;9.10;5.68;;;-2.30;94.10;;;;;;5052155;28;20293;-77
2023/02/06 00:58:25;;;;;;;10.38;7.45;;;-2.30;94.00;;;;;;5052234;28;20025;-79
2023/02/06 01:00:51;;;;;;;15.27;7.90;;;-2.30;94.00;;;;;;5034437;28;20453;-78
2023/02/06 01:03:17;;;;;;;12.80;7.75;;;-2.30;94.00;;;;;;5052280;28;20024;-78
2023/02/06 01:05:43;;;;;;;17.80;8.65;;;-2.30;94.00;;;;;;5052461;28;20041;-76
2023/02/06 01:08:09;;;;;;;12.02;7.03;;;-2.40;94.00;;;;;;5052075;28;20048;-78
2023/02/06 01:10:35;;;;;;;12.93;8.57;;;-2.40;94.10;;;;;;5051946;28;20057;-77
2023/02/06 01:13:01;;;;;;;12.40;6.95;;;-2.40;94.20;;;;;;5047692;28;20061;-76
2023/02/06 01:15:26;;;;;;;12.93;7.57;;;-2.40;94.20;;;;;;5052249;28;20364;-77
2023/02/06 01:17:52;;;;;;;14.65;8.32;;;-2.40;94.20;;;;;;5052249;28;20021;-77
2023/02/06 01:20:18;;;;;;;14.65;8.23;;;-2.40;94.30;;;;;;5033435;28;20068;-76
2023/02/06 01:22:44;;;;;;;11.63;8.45;;;-2.40;94.30;;;;;;5034325;28;20488;-77
2023/02/06 01:25:10;;;;;;;12.85;8.07;;;-2.40;94.20;;;;;;5034085;28;20423;-77
2023/02/06 01:27:37;;;;;;;13.23;6.57;;;-2.50;94.20;;;;;;5051359;28;20549;-77
2023/02/06 01:30:05;;;;;;;11.15;7.28;;;-2.40;94.30;;;;;;5051932;28;20070;-77
2023/02/06 01:32:31;;;;;;;10.68;6.43;;;-2.50;94.10;;;;;;5051730;28;20366;-77
2023/02/06 01:34:59;;;;;;;10.15;6.55;;;-2.50;94.20;;;;;;5051797;28;20029;-77
2023/02/06 01:37:25;;;;;;;14.43;7.57;;;-2.50;94.10;;;;;;5050386;28;20021;-78
2023/02/06 01:39:51;;;;;;;9.65;6.60;;;-2.60;94.10;;;;;;5050382;28;20044;-76
2023/02/06 01:42:17;;;;;;;10.90;6.95;;;-2.60;94.00;;;;;;5051432;28;20546;-77
2023/02/06 01:44:43;;;;;;;11.38;7.78;;;-2.60;94.00;;;;;;5038060;28;20036;-78
2023/02/06 01:47:09;;;;;;;9.38;6.40;;;-2.60;94.20;;;;;;5051559;28;20029;-76
2023/02/06 01:49:53;;;;;;;11.40;7.22;;;-2.50;94.30;;;;;;5051105;28;20549;-77
2023/02/06 01:52:23;;;;;;;11.38;6.85;;;-2.50;94.20;;;;;;5051551;28;20578;-77
2023/02/06 01:54:58;;;;;;;10.45;6.72;;;-2.50;94.20;;;;;;5050908;28;20043;-76
2023/02/06 01:57:26;;;;;;;9.73;7.15;;;-2.50;94.20;;;;;;5051679;28;20044;-76
2023/02/06 02:00:00;;;;;;;10.13;7.38;;;-2.50;94.00;;;;;;5050842;28;20025;-78
2023/02/06 02:02:29;;;;;;;10.55;6.22;;;-2.60;94.00;;;;;;5051439;28;20423;-77
2023/02/06 02:04:57;;;;;;;11.10;7.22;;;-2.60;94.10;;;;;;5050954;28;20055;-77
2023/02/06 02:07:50;;;;;;;10.70;7.43;;;-2.70;94.10;;;;;;5051143;28;20013;-75
2023/02/06 02:10:16;;;;;;;11.63;6.72;;;-2.70;94.20;;;;;;5027690;28;20471;-76
2023/02/06 02:12:42;;;;;;;12.70;8.25;;;-2.60;94.30;;;;;;5051050;28;20104;-76
2023/02/06 02:15:08;;;;;;;11.57;6.40;;;-2.70;94.10;;;;;;5049259;28;20427;-77
2023/02/06 02:17:49;;;;;;;7.50;5.93;;;-2.70;94.20;;;;;;5051401;28;20363;-76
2023/02/06 02:20:42;;;;;;;12.82;6.55;;;-2.70;94.20;;;;;;5051260;28;20033;-78
2023/02/06 02:23:33;;;;;;;10.07;5.68;;;-2.70;94.20;;;;;;5033510;28;20081;-76
2023/02/06 02:26:23;;;;;;;10.27;7.40;;;-2.80;94.10;;;;;;5032447;28;20025;-77
2023/02/06 02:29:07;;;;;;;8.75;6.40;;;-2.90;94.20;;;;;;5050297;28;20473;-77
2023/02/06 02:31:43;;;;;;;9.45;5.63;;;-2.90;94.40;;;;;;5051242;28;20057;-76
2023/02/06 02:34:46;;;;;;;8.27;5.88;;;-2.80;94.40;;;;;;5050236;28;20029;-77
2023/02/06 02:37:21;;;;;;;8.93;5.90;;;-2.90;94.30;;;;;;5051488;28;20086;-78
2023/02/06 02:40:02;;;;;;;10.90;6.47;;;-2.90;94.40;;;;;;5051320;28;20033;-75
2023/02/06 02:42:41;;;;;;;7.78;5.75;;;-3.00;94.50;;;;;;5050492;28;20464;-77
2023/02/06 02:45:19;;;;;;;8.32;5.88;;;-2.90;94.60;;;;;;5051485;28;20025;-77
2023/02/06 02:48:14;;;;;;;9.18;6.00;;;-2.90;94.70;;;;;;5051218;28;20407;-77
2023/02/06 02:50:41;;;;;;;10.60;6.05;;;-2.80;94.60;;;;;;5051305;28;20369;-76
2023/02/06 02:53:07;;;;;;;11.18;6.65;;;-2.80;94.60;;;;;;5051161;28;20021;-78
2023/02/06 02:55:33;;;;;;;6.80;5.13;;;-2.70;94.60;;;;;;5051358;28;20047;-78
2023/02/06 02:58:07;;;;;;;9.45;5.65;;;-2.80;94.20;;;;;;5050976;28;20489;-78
2023/02/06 03:00:40;;;;;;;11.30;7.03;;;-2.90;94.30;;;;;;5032983;28;20037;-77
2023/02/06 03:03:09;;;;;;;7.93;5.25;;;-2.90;94.30;;;;;;5051132;28;20048;-77
2023/02/06 03:05:43;;;;;;;7.72;5.85;;;-3.00;94.30;;;;;;5051053;28;20479;-77
2023/02/06 03:08:59;;;;;;;8.88;5.13;;;-3.00;94.40;;;;;;5050933;28;20420;-77
2023/02/06 03:11:25;;;;;;;8.02;5.18;;;-3.10;94.50;;;;;;5045354;28;20036;-78
2023/02/06 03:13:56;;;;;;;8.50;5.10;;;-3.10;94.60;;;;;;5051248;28;20021;-79
2023/02/06 03:16:27;;;;;;;12.25;8.20;;;-3.10;94.60;;;;;;5051122;28;20025;-77
2023/02/06 03:18:59;;;;;;;8.23;5.38;;;-3.20;94.60;;;;;;5048186;28;20147;-78
2023/02/06 03:21:27;;;;;;;8.32;5.78;;;-3.20;94.80;;;;;;5054571;28;20025;-78
2023/02/06 03:23:57;;;;;;;8.68;5.30;;;-3.20;94.80;;;;;;5054569;28;20017;-78
2023/02/06 03:26:27;;;;;;;6.30;5.28;;;-3.20;94.80;;;;;;5054592;28;20020;-78
2023/02/06 03:28:58;;;;;;;7.88;5.07;;;-3.20;94.80;;;;;;5054452;28;20017;-78
2023/02/06 03:31:31;;;;;;;9.32;5.82;;;-3.20;94.90;;;;;;5054807;28;20029;-77
2023/02/06 03:34:19;;;;;;;8.85;5.80;;;-3.20;94.90;;;;;;5054458;28;20028;-79
2023/02/06 03:36:45;;;;;;;8.18;5.60;;;-3.30;94.90;;;;;;5045007;28;20025;-79
2023/02/06 03:39:12;;;;;;;8.65;5.75;;;-3.40;95.00;;;;;;5020018;28;20041;-79
2023/02/06 03:41:39;;;;;;;12.07;6.33;;;-3.40;95.20;;;;;;5054335;28;20025;-78
2023/02/06 03:44:09;;;;;;;10.27;7.30;;;-3.40;95.30;;;;;;5054161;28;20025;-78
2023/02/06 03:46:38;;;;;;;9.90;6.72;;;-3.40;95.30;;;;;;5054277;28;20021;-78
2023/02/06 03:49:07;;;;;;;8.10;5.93;;;-3.40;95.40;;;;;;5054094;28;20500;-76
2023/02/06 03:51:39;;;;;;;10.27;6.47;;;-3.40;95.50;;;;;;5053044;28;20144;-77
2023/02/06 03:54:06;;;;;;;9.48;5.70;;;-3.40;95.70;;;;;;5054088;28;20028;-78
2023/02/06 03:56:38;;;;;;;8.65;6.72;;;-3.30;95.80;;;;;;5054021;28;20017;-78
2023/02/06 03:59:03;;;;;;;10.10;6.95;;;-3.30;95.80;;;;;;5053902;28;20035;-78
2023/02/06 04:01:30;;;;;;;9.65;5.30;;;-3.30;95.90;;;;;;5053891;28;20438;-77
2023/02/06 04:03:57;;;;;;;9.40;6.45;;;-3.30;95.90;;;;;;5054004;28;20028;-77
2023/02/06 04:06:23;;;;;;;9.02;5.38;;;-3.40;95.80;;;;;;5035800;28;20059;-78
2023/02/06 04:08:49;;;;;;;9.95;7.25;;;-3.50;95.80;;;;;;5018184;28;20075;-78
2023/02/06 04:11:14;;;;;;;10.77;6.18;;;-3.50;96.10;;;;;;5053891;28;20029;-77
2023/02/06 04:13:40;;;;;;;8.40;6.22;;;-3.50;96.10;;;;;;5053794;28;20025;-77
2023/02/06 04:16:06;;;;;;;9.82;6.78;;;-3.50;96.20;;;;;;5053693;28;20075;-77
2023/02/06 04:18:32;;;;;;;8.70;5.88;;;-3.50;96.30;;;;;;5053470;28;20092;-78
2023/02/06 04:21:05;;;;;;;13.30;6.70;;;-3.40;96.30;;;;;;5053570;28;20112;-76
2023/02/06 04:23:31;;;;;;;9.18;5.93;;;-3.40;96.30;;;;;;5052690;28;20056;-77
2023/02/06 04:25:57;;;;;;;10.13;6.43;;;-3.40;96.30;;;;;;5053414;28;20476;-78
2023/02/06 04:28:23;;;;;;;8.82;6.30;;;-3.40;96.40;;;;;;5035607;28;20376;-78
2023/02/06 04:30:49;;;;;;;10.85;6.35;;;-3.40;96.30;;;;;;5035002;28;20021;-78
2023/02/06 04:33:14;;;;;;;10.27;6.50;;;-3.40;96.30;;;;;;5052951;28;20064;-77
2023/02/06 04:35:40;;;;;;;9.73;7.22;;;-3.40;96.40;;;;;;5051980;28;20032;-78
2023/02/06 04:38:06;;;;;;;12.30;6.82;;;-3.40;96.60;;;;;;5053225;28;20025;-77
2023/02/06 04:40:32;;;;;;;11.80;7.00;;;-3.40;96.40;;;;;;5053058;28;20116;-78
2023/02/06 04:42:58;;;;;;;8.48;5.85;;;-3.40;96.50;;;;;;5034514;28;20435;-78
2023/02/06 04:45:24;;;;;;;11.20;6.10;;;-3.30;96.50;;;;;;5051839;28;20029;-78
2023/02/06 04:47:50;;;;;;;10.30;7.40;;;-3.30;96.50;;;;;;5053352;28;20071;-76
2023/02/06 04:50:17;;;;;;;11.63;6.38;;;-3.30;96.40;;;;;;5035120;28;20135;-77
2023/02/06 04:52:42;;;;;;;9.70;6.40;;;-3.30;96.30;;;;;;5053432;28;20060;-76
2023/02/06 04:55:08;;;;;;;10.02;6.03;;;-3.30;96.30;;;;;;5052889;28;20063;-78
2023/02/06 04:57:34;;;;;;;10.30;6.70;;;-3.30;96.20;;;;;;5052183;28;20453;-79
2023/02/06 05:00:00;;;;;;;9.10;6.30;;;-3.30;96.30;;;;;;5034712;28;20120;-76
2023/02/06 05:02:26;;;;;;;13.20;7.32;;;-3.30;96.30;;;;;;5052703;28;20021;-78
2023/02/06 05:04:52;;;;;;;10.55;6.95;;;-3.20;96.40;;;;;;5052567;28;20017;-79
2023/02/06 05:07:18;;;;;;;6.78;5.18;;;-3.10;96.40;;;;;;5052670;28;20376;-78
2023/02/06 05:09:44;;;;;;;10.27;6.25;;;-3.10;96.30;;;;;;5052293;28;20041;-78
2023/02/06 05:12:10;;;;;;;8.20;6.18;;;-3.10;96.20;;;;;;5052521;28;20024;-79
2023/02/06 05:14:36;;;;;;;11.50;7.68;;;-3.10;96.10;;;;;;5052129;28;20495;-79
2023/02/06 05:17:02;;;;;;;10.93;6.10;;;-3.10;96.00;;;;;;5051068;28;20056;-78
2023/02/06 05:19:28;;;;;;;9.23;6.65;;;-3.10;96.00;;;;;;5052305;28;20090;-77
2023/02/06 05:21:54;;;;;;;11.10;8.82;;;-3.10;96.10;;;;;;5052254;28;20021;-77
2023/02/06 05:24:20;;;;;;;13.70;8.02;;;-3.20;96.10;;;;;;5052189;28;20087;-78
2023/02/06 05:26:45;;;;;;;9.35;7.00;;;-3.30;96.10;;;;;;5034297;28;20036;-78
2023/02/06 05:29:11;;;;;;;10.75;7.72;;;-3.30;96.30;;;;;;5038132;28;20052;-77
2023/02/06 05:31:37;;;;;;;12.05;7.65;;;-3.20;96.40;;;;;;5051181;28;20025;-77
2023/02/06 05:34:03;;;;;;;10.77;6.93;;;-3.20;96.50;;;;;;5047121;28;20017;-79
2023/02/06 05:36:29;;;;;;;8.70;7.07;;;-3.10;96.40;;;;;;5049554;28;20020;-77
2023/02/06 05:38:55;;;;;;;9.65;6.80;;;-3.10;96.50;;;;;;5046678;28;20025;-79
2023/02/06 05:41:20;;;;;;;11.07;8.00;;;-3.10;96.50;;;;;;5049375;28;20025;-79
2023/02/06 05:43:46;;;;;;;12.10;6.57;;;-3.10;96.20;;;;;;5051194;28;20025;-79
2023/02/06 05:46:12;;;;;;;8.02;6.22;;;-3.10;96.10;;;;;;5048839;28;20025;-79
2023/02/06 05:48:39;;;;;;;9.45;6.90;;;-3.10;96.10;;;;;;5033281;28;20029;-79
2023/02/06 05:51:05;;;;;;;9.85;6.78;;;-3.10;96.00;;;;;;5032442;28;20104;-79
2023/02/06 05:53:30;;;;;;;9.82;6.70;;;-3.20;95.70;;;;;;5050517;28;20112;-78
2023/02/06 05:55:56;;;;;;;10.27;6.78;;;-3.20;95.50;;;;;;5050579;28;20402;-80
2023/02/06 05:58:22;;;;;;;10.93;7.10;;;-3.20;95.50;;;;;;5045168;28;20017;-78
2023/02/06 06:00:48;;;;;;;11.32;6.53;;;-3.20;95.50;;;;;;5038515;28;20539;-78
2023/02/06 06:03:14;;;;;;;9.57;6.20;;;-3.20;95.50;;;;;;5043802;28;20379;-77
2023/02/06 06:05:40;;;;;;;9.38;6.47;;;-3.20;95.60;;;;;;5042559;28;20017;-77
2023/02/06 06:08:05;;;;;;;11.02;6.72;;;-3.10;95.50;;;;;;5045845;28;20046;-78
2023/02/06 06:10:31;;;;;;;9.50;6.05;;;-3.10;95.60;;;;;;5047251;28;20033;-78
2023/02/06 06:12:57;;;;;;;10.75;7.90;;;-3.00;95.30;;;;;;5035170;28;20018;-77
2023/02/06 06:15:23;;;;;;;12.27;6.85;;;-3.00;95.10;;;;;;5048801;28;20028;-76
2023/02/06 06:17:49;;;;;;;10.27;7.22;;;-3.00;95.00;;;;;;5040081;28;20029;-76
2023/02/06 06:20:15;;;;;;;8.40;5.38;;;-3.00;94.80;;;;;;5052672;28;20123;-78
2023/02/06 06:22:41;;;;;;;10.35;7.25;;;-3.00;94.80;;;;;;5056504;28;20098;-79
2023/02/06 06:25:07;;;;;;;11.77;7.07;;;-3.00;94.70;;;;;;5048447;28;20033;-78
2023/02/06 06:27:33;;;;;;;9.10;6.78;;;-3.00;94.50;;;;;;5048388;28;20021;-77
2023/02/06 06:29:59;;;;;;;8.52;5.78;;;-2.90;94.60;;;;;;5052947;28;20399;-78
2023/02/06 06:32:25;;;;;;;8.98;7.07;;;-2.80;94.50;;;;;;5048302;28;20096;-78
2023/02/06 06:34:50;;;;;;;8.77;5.93;;;-2.80;94.50;;;;;;5048779;28;20036;-79
2023/02/06 06:37:16;;;;;;;10.98;6.18;;;-2.80;94.30;;;;;;5035998;28;20111;-80
2023/02/06 06:39:42;;;;;;;8.90;5.93;;;-2.80;94.20;;;;;;5045549;28;20034;-78
2023/02/06 06:42:08;;;;;;;9.55;6.05;;;-2.80;94.10;;;;;;5050977;28;20372;-79
2023/02/06 06:44:34;;;;;;;11.57;6.43;;;-2.80;93.90;;;;;;5044740;28;20049;-79
2023/02/06 06:46:59;;;;;;;9.65;6.50;;;-2.80;93.80;;;;;;5030565;28;20028;-79
2023/02/06 06:49:25;;;;;;;10.27;6.22;;;-2.90;93.80;;;;;;5041780;28;20039;-81
2023/02/06 06:51:51;;;;;;;9.15;6.32;;;-2.80;93.80;;;;;;5043823;28;20021;-78
2023/02/06 06:54:18;;;;;;;9.98;8.25;;;-2.90;93.30;;;;;;5028053;28;20071;-78
2023/02/06 06:56:44;;;;;;;8.35;5.88;;;-2.90;93.40;;;;;;5047571;28;20029;-77
2023/02/06 06:59:10;;;;;;;9.18;5.68;;;-2.90;93.40;;;;;;5054247;28;20087;-79
2023/02/06 07:01:36;;;;;;;7.88;5.82;;;-2.80;93.20;;;;;;5053417;28;20033;-78
2023/02/06 07:04:02;;;;;;;9.93;5.88;;;-2.90;93.10;;;;;;5049415;28;20104;-78
2023/02/06 07:06:28;;;;;;;8.55;6.20;;;-2.90;93.10;;;;;;5048736;28;20031;-78
2023/02/06 07:08:54;;;;;;;9.30;6.22;;;-2.90;93.00;;;;;;5045930;28;20037;-76
2023/02/06 07:11:20;;;;;;;10.35;5.32;;;-2.90;93.00;;;;;;5041005;28;20099;-79
2023/02/06 07:13:46;;;;;;;7.68;6.05;;;-2.90;92.80;;;;;;5045956;28;20116;-78
2023/02/06 07:16:12;;;;;;;7.32;5.28;;;-2.90;92.70;;;;;;5047947;28;20032;-80
2023/02/06 07:18:40;;;;;;;9.35;6.55;;;-2.90;92.70;;;;;;5037051;28;20056;-78
2023/02/06 07:21:07;;;;;;;7.63;4.88;;;-2.90;92.60;;;;;;5054890;28;20513;-79
2023/02/06 07:23:36;;;;;;;7.93;5.70;;;-2.90;92.50;;;;;;5055074;28;20045;-80
2023/02/06 07:26:02;;;;;;;9.05;5.82;;;-2.90;92.30;;;;;;5054854;28;20104;-80
2023/02/06 07:28:29;;;;;;;10.30;5.97;;;-2.90;92.30;;;;;;5054298;28;20520;-80
2023/02/06 07:31:02;;;;;;;7.03;5.13;;;-2.90;92.30;;;;;;5036731;28;20430;-81
2023/02/06 07:33:28;;;;;;;8.73;6.03;;;-2.90;92.20;;;;;;5050921;28;20017;-80
2023/02/06 07:35:54;;;;;;;10.38;7.15;;;-2.90;92.20;;;;;;5048706;28;20086;-80
2023/02/06 07:38:20;;;;;;;7.47;5.90;;;-2.90;92.10;;;;;;5036482;28;20021;-80
2023/02/06 07:40:46;;;;;;;8.48;5.78;;;-2.90;92.30;;;;;;5047465;28;20386;-80
2023/02/06 07:43:12;;;;;;;10.18;6.18;;;-2.90;92.30;;;;;;5053674;28;20013;-81
2023/02/06 07:45:38;;;;;;;8.97;6.97;;;-2.80;92.50;;;;;;5049293;28;20042;-81
2023/02/06 07:48:05;;;;;;;13.10;7.20;;;-2.80;92.20;;;;;;5052759;28;20029;-79
2023/02/06 07:50:31;;;;;;;10.02;6.43;;;-2.70;92.20;;;;;;5051691;28;20612;-79
2023/02/06 07:52:57;;;;;;;7.70;6.32;;;-2.70;92.10;;;;;;5048364;28;20151;-80
2023/02/06 07:55:23;;;;;;;9.65;6.32;;;-2.70;92.20;;;;;;5051001;28;20063;-79
2023/02/06 07:57:49;;;;;;;13.55;6.75;;;-2.70;92.30;;;;;;5035583;28;20036;-80
2023/02/06 08:00:15;;;;;;;9.00;7.10;;;-2.70;92.20;;;;;;5050490;28;20029;-79
2023/02/06 08:02:41;;;;;;;9.20;6.22;;;-2.70;92.10;;;;;;5047405;28;20506;-79
2023/02/06 08:05:08;;;;;;;9.57;6.72;;;-2.70;92.00;;;;;;5039955;28;20033;-79
2023/02/06 08:07:33;;;;;;;11.02;6.22;;;-2.70;92.10;;;;;;5048866;28;20039;-79
2023/02/06 08:09:59;;;;;;;10.73;7.25;;;-2.70;92.20;;;;;;5048159;28;20063;-79
2023/02/06 08:12:25;;;;;;;9.32;6.93;;;-2.70;92.20;;;;;;5050298;28;20056;-78
2023/02/06 08:14:51;;;;;;;9.80;6.30;;;-2.80;92.40;;;;;;5047124;28;20051;-79
2023/02/06 08:17:18;;;;;;;8.65;6.63;;;-2.80;92.40;;;;;;5053527;28;20027;-79
2023/02/06 08:19:44;;;;;;;10.10;7.07;;;-2.90;92.60;;;;;;5035560;28;20029;-79
2023/02/06 08:22:09;;;;;;;8.82;7.15;;;-2.80;92.70;;;;;;5053327;28;20083;-79
2023/02/06 08:24:35;;;;;;;7.55;6.45;;;-2.70;92.70;;;;;;5035536;28;20033;-77
2023/02/06 08:27:01;;;;;;;9.30;7.13;;;-2.80;92.60;;;;;;5053474;28;20381;-79
2023/02/06 08:29:27;;;;;;;9.60;6.75;;;-2.70;92.50;;;;;;5035269;28;20028;-78
2023/02/06 08:31:53;;;;;;;11.73;7.55;;;-2.70;92.50;;;;;;5053181;28;20025;-78
2023/02/06 08:34:18;;;;;;;13.18;7.88;;;-2.80;92.60;;;;;;5043157;28;20453;-79
2023/02/06 08:36:44;;;;;;;10.05;7.38;;;-2.80;92.70;;;;;;5025324;28;20029;-78
2023/02/06 08:39:13;;;;;;;9.10;6.60;;;-2.70;92.70;;;;;;5039253;28;20026;-78
2023/02/06 08:41:41;;;;;;;10.68;7.50;;;-2.70;92.70;;;;;;5052918;28;20033;-79
2023/02/06 08:44:15;;;;;;;9.48;6.38;;;-2.70;92.60;;;;;;5049644;28;20028;-80
2023/02/06 08:46:42;;;;;;;9.38;6.90;;;-2.60;92.60;;;;;;5051756;28;20032;-80
2023/02/06 08:49:15;;;;;;;9.90;7.28;;;-2.70;92.60;;;;;;5034197;28;20025;-80
2023/02/06 08:51:41;;;;;;;11.13;8.25;;;-2.60;92.70;;;;;;5043231;28;20036;-80
2023/02/06 08:54:11;;;;;;;12.80;7.95;;;-2.60;92.60;;;;;;5034136;28;20502;-80
2023/02/06 08:56:37;;;;;;;8.60;6.57;;;-2.60;92.40;;;;;;5039118;28;20087;-81
2023/02/06 08:59:04;;;;;;;8.73;6.53;;;-2.70;92.40;;;;;;5049661;28;20108;-78
2023/02/06 09:01:31;;;;;;;16.23;8.35;;;-2.70;92.50;;;;;;5050560;28;20047;-81
2023/02/06 09:04:05;;;;;;;11.35;6.97;;;-2.70;92.50;;;;;;5050603;28;20021;-82
2023/02/06 09:06:32;;;;;;;16.55;8.07;;;-2.70;92.50;;;;;;5048327;28;20016;-83
2023/02/06 09:08:59;;;;;;;10.55;7.70;;;-2.70;92.60;;;;;;5050456;28;20049;-78
2023/02/06 09:11:25;;;;;;;12.32;8.15;;;-2.70;92.50;;;;;;5021835;28;20030;-82
2023/02/06 09:13:54;;;;;;;13.85;7.45;;;-2.70;92.50;;;;;;5039805;28;20018;-78
2023/02/06 09:16:21;;;;;;;11.43;7.57;;;-2.80;92.60;;;;;;5046654;28;20017;-78
2023/02/06 09:18:49;;;;;;;8.27;6.82;;;-2.80;92.80;;;;;;5051289;28;20036;-80
2023/02/06 09:21:21;;;;;;;10.65;6.68;;;-2.80;93.00;;;;;;5041384;28;20124;-80
2023/02/06 09:23:57;;;;;;;11.52;7.60;;;-2.80;93.10;;;;;;5039576;28;20496;-81
2023/02/06 09:26:26;;;;;;;9.27;6.70;;;-2.80;93.00;;;;;;5043930;28;20070;-79
2023/02/06 09:28:53;;;;;;;15.20;8.27;;;-2.80;93.00;;;;;;5039107;28;20032;-79
2023/02/06 09:31:19;;;;;;;;;;;-2.80;93.10;;;;;;5034275;28;20538;-79
2023/02/06 09:33:45;;;;;;;10.77;6.55;;;-2.80;93.00;;;;;;5045963;28;19905;-78
2023/02/06 09:36:14;;;;;;;10.27;7.63;;;-2.80;93.00;;;;;;5038973;28;20029;-79
2023/02/06 09:38:42;;;;;;;13.32;7.07;;;-2.80;93.00;;;;;;5041962;28;20018;-79
2023/02/06 09:41:33;;;;;;;11.27;9.00;;;-2.80;93.00;;;;;;5044289;28;20035;-79
2023/02/06 09:44:17;;;;;;;11.75;7.97;;;-2.70;93.00;;;;;;5040375;28;20017;-81
2023/02/06 09:47:00;;;;;;;10.38;7.20;;;-2.70;93.10;;;;;;5039834;28;20040;-81
2023/02/06 09:49:43;;;;;;;12.43;8.25;;;-2.60;93.10;;;;;;5044724;28;20456;-81
2023/02/06 09:52:11;;;;;;;11.85;6.78;;;-2.50;93.00;;;;;;5042687;28;20075;-80
2023/02/06 09:55:00;;;;;;;10.00;5.75;;;-2.50;92.70;;;;;;5040692;28;20021;-81
2023/02/06 09:57:59;;;;;;;11.02;6.20;;;-2.50;92.70;;;;;;5045748;28;20101;-80
2023/02/06 10:00:33;;;;;;;8.18;5.75;;;-2.70;92.80;;;;;;5024379;28;20153;-80
2023/02/06 10:03:02;;;;;;;11.15;7.95;;;-2.70;93.10;;;;;;5045927;28;20025;-86
2023/02/06 10:05:59;;;;;;;12.75;8.30;;;-2.60;93.20;;;;;;5025964;28;20035;-85
2023/02/06 10:08:40;;;;;;;11.48;6.90;;;-2.50;93.00;;;;;;5036153;28;20503;-82
2023/02/06 10:11:19;;;;;;;9.45;6.70;;;-2.40;92.80;;;;;;5038604;28;20104;-78
2023/02/06 10:13:54;;;;;;;10.57;7.07;;;-2.50;92.70;;;;;;5031795;28;20068;-79
2023/02/06 10:16:44;;;;;;;10.45;7.10;;;-2.50;92.60;;;;;;5041883;28;20067;-80
2023/02/06 10:19:34;;;;;;;10.30;7.07;;;-2.60;92.60;;;;;;5033257;28;20376;-80
2023/02/06 10:22:19;;;;;;;8.57;6.72;;;-2.60;92.70;;;;;;5051155;28;20033;-80
2023/02/06 10:25:22;;;;;;;10.93;7.25;;;-2.60;92.80;;;;;;5051399;28;20021;-79
2023/02/06 10:27:53;;;;;;;12.52;7.10;;;-2.60;92.90;;;;;;5038252;28;20057;-80
2023/02/06 10:30:30;;;;;;;12.23;7.55;;;-2.60;92.80;;;;;;5033033;28;20036;-80
2023/02/06 10:32:59;;;;;;;12.13;8.27;;;-2.60;92.80;;;;;;5027142;28;20025;-80
2023/02/06 10:35:51;;;;;;;12.32;7.78;;;-2.70;92.80;;;;;;5046469;28;20025;-81
2023/02/06 10:38:44;;;;;;;10.85;8.07;;;-2.70;93.10;;;;;;5046117;28;20483;-83
2023/02/06 10:41:37;;;;;;;10.35;7.18;;;-2.60;93.00;;;;;;5045861;28;20033;-82
2023/02/06 10:44:21;;;;;;;11.23;7.60;;;-2.70;93.00;;;;;;5025212;28;20018;-82
2023/02/06 10:46:49;;;;;;;10.45;7.05;;;-2.70;93.00;;;;;;5053794;28;20025;-83
2023/02/06 10:49:29;;;;;;;12.90;7.95;;;-2.70;93.10;;;;;;5042415;28;20349;-83
2023/02/06 10:52:01;;;;;;;10.65;7.03;;;-2.70;93.30;;;;;;5046730;28;20072;-85
2023/02/06 10:54:33;;;;;;;10.63;7.53;;;-2.70;93.10;;;;;;5040890;28;20029;-81
2023/02/06 10:57:00;;;;;;;11.55;6.95;;;-2.60;93.10;;;;;;5048636;28;20139;-82
2023/02/06 10:59:29;;;;;;;;;;;-2.60;93.10;;;;;;5044835;28;20041;-82
2023/02/06 11:02:06;;;;;;;10.40;6.63;;;-2.60;93.00;;;;;;5033039;28;20345;-84
2023/02/06 11:04:37;;;;;;;12.77;8.60;;;-2.60;92.90;;;;;;5026039;28;20029;-84
2023/02/06 11:07:23;;;;;;;9.52;7.20;;;-2.60;93.00;;;;;;5050850;28;20032;-84
2023/02/06 11:09:50;;;;;;;10.25;7.30;;;-2.60;93.00;;;;;;5044547;28;20128;-82
2023/02/06 11:12:40;;;;;;;9.13;7.28;;;-2.50;93.00;;;;;;5047927;28;20430;-82
2023/02/06 11:15:47;;;;;;;12.75;7.82;;;-2.50;92.90;;;;;;5045642;28;20058;-80
2023/02/06 11:18:20;;;;;;;10.80;7.20;;;-2.50;93.00;;;;;;5034402;28;20033;-82
2023/02/06 11:20:48;;;;;;;9.05;6.90;;;-2.50;92.90;;;;;;5050581;28;20028;-81
2023/02/06 11:23:20;;;;;;;8.77;7.38;;;-2.40;92.90;;;;;;5049042;28;20408;-83
2023/02/06 11:25:55;;;;;;;10.52;7.70;;;-2.40;92.80;;;;;;5050562;28;20108;-82
2023/02/06 11:28:23;;;;;;;8.18;6.90;;;-2.40;92.70;;;;;;5050562;28;20054;-81
2023/02/06 11:31:02;;;;;;;11.90;7.25;;;-2.40;92.80;;;;;;5050239;28;20063;-81
2023/02/06 11:33:40;;;;;;;11.43;7.28;;;-2.40;92.80;;;;;;5050775;28;20021;-80
2023/02/06 11:36:19;;;;;;;11.45;7.97;;;-2.30;92.70;;;;;;5047785;28;20074;-79
2023/02/06 11:39:18;;;;;;;10.95;7.35;;;-2.30;92.80;;;;;;5048727;28;20029;-79
2023/02/06 11:42:03;;;;;;;10.45;8.38;;;-2.30;92.70;;;;;;5042575;28;20033;-79
2023/02/06 11:44:38;;;;;;;11.63;7.07;;;-2.30;92.50;;;;;;5050217;28;20017;-80
2023/02/06 11:47:33;;;;;;;11.05;6.63;;;-2.30;92.30;;;;;;5052467;28;20078;-79
2023/02/06 11:50:27;;;;;;;12.50;6.75;;;-2.50;92.20;;;;;;5041674;28;20456;-80
2023/02/06 11:52:59;;;;;;;11.02;7.68;;;-2.60;92.40;;;;;;5053956;28;20013;-80
2023/02/06 11:55:33;;;;;;;10.35;7.45;;;-2.70;92.40;;;;;;5052137;28;20021;-80
2023/02/06 11:58:08;;;;;;;11.90;7.63;;;-2.70;92.60;;;;;;5051703;28;20029;-79
2023/02/06 12:00:35;;;;;;;7.82;6.32;;;-2.70;92.70;;;;;;5053584;28;20033;-79
2023/02/06 12:03:01;;;;;;;;;;;-2.60;92.70;;;;;;5053200;28;20025;-82
2023/02/06 12:05:33;;;;;;;8.20;6.38;;;-2.60;92.50;;;;;;5037484;28;19905;-82
2023/02/06 12:08:12;;;;;;;13.40;7.32;;;-2.60;92.70;;;;;;5053124;28;20053;-85
2023/02/06 12:10:51;;;;;;;9.43;6.80;;;-2.60;92.60;;;;;;5036183;28;20018;-84
2023/02/06 12:13:25;;;;;;;8.32;6.13;;;-2.50;92.60;;;;;;5035757;28;20048;-80
2023/02/06 12:15:56;;;;;;;25.75;9.80;;;-2.50;92.70;;;;;;5040115;28;20399;-83
2023/02/06 12:18:33;;;;;;;10.80;6.57;;;-2.50;92.70;;;;;;5054160;28;20421;-81
2023/02/06 12:21:19;;;;;;;10.98;8.05;;;-2.50;92.60;;;;;;5053732;28;20041;-84
2023/02/06 12:23:52;;;;;;;10.32;6.95;;;-2.60;92.40;;;;;;5047429;28;20079;-81
2023/02/06 12:26:21;;;;;;;11.18;7.05;;;-2.50;92.60;;;;;;5054469;28;20087;-83
2023/02/06 12:28:59;;;;;;;10.25;7.50;;;-2.50;92.70;;;;;;5053873;28;20021;-85
2023/02/06 12:31:24;;;;;;;;;;;-2.40;92.60;;;;;;5054558;28;20075;-86
2023/02/06 12:34:22;;;;;;;8.23;5.35;;;-2.40;92.50;;;;;;5053726;28;19909;-85
2023/02/06 12:36:59;;;;;;;11.90;6.93;;;-2.50;92.30;;;;;;5053399;28;20041;-83
2023/02/06 12:39:30;;;;;;;11.95;7.05;;;-2.50;92.40;;;;;;5053778;28;20013;-84
2023/02/06 12:42:05;;;;;;;11.20;6.80;;;-2.50;92.40;;;;;;5033732;28;20032;-83
2023/02/06 12:44:53;;;;;;;7.50;6.18;;;-2.60;92.20;;;;;;5052363;28;20036;-80
2023/02/06 12:47:22;;;;;;;10.02;7.03;;;-2.70;92.10;;;;;;5049798;28;20082;-80
2023/02/06 12:50:09;;;;;;;13.48;7.15;;;-2.70;92.20;;;;;;5023612;28;20503;-87
2023/02/06 12:52:42;;;;;;;12.55;7.82;;;-2.60;92.40;;;;;;5049619;28;20052;-82
2023/02/06 12:55:28;;;;;;;10.27;7.72;;;-2.50;92.40;;;;;;5035158;28;20571;-83
2023/02/06 12:57:54;;;;;;;12.77;7.57;;;-2.50;92.30;;;;;;5028967;28;20031;-84
2023/02/06 13:00:50;;;;;;;9.60;7.80;;;-2.50;92.10;;;;;;5050003;28;20091;-82